Tropical Cyclones
[Index]
Main Index Home Page Stock Weather Photos Extreme Storms Discussion Storm News and Storm Chasing Reports Tropical Cyclones / Hurricanes / Typhoons Weather Data and Links Wild Fires / Bushfires Weather Observation Techniques Weather Picture Catalogue Tornado Pictures and Reports Stock Video Footage and DVDs for sale
Season 1959-1960 Tropical Cyclone 196022 Track Map
Season 1959-1960 Summaries: [BoM-AU] [JTWC-AU] [JTWC-SIO] [JTWC-SPAC] [JTWC-SH]
<<- Previous TC | JTWC 1959-1960 Season | Next TC ->>

click for intensity scale information  Lat/long Grid: Show Hide

 Date Labels: Show Hide

Joint Typhoon Warning Centre Cyclone Data

Name: 196022
Number: 392 / 6022

01 Apr 1960 12:00 UTC to 13 Apr 1960 00:00 UTC

    date/time    lat    long     hPa   cat  kts
1960-04-01 12   13.4   157.1W                             
1960-04-01 18   13.7   157.4W                             
1960-04-02 00   14.0   157.7W                             
1960-04-02 06   14.3   158.0W                             
1960-04-02 12   14.6   158.3W                             
1960-04-02 18   14.9   158.6W                             
1960-04-03 00   15.2   158.9W                             
1960-04-03 06   15.7   159.2W                             
1960-04-03 12   16.3   159.5W                             
1960-04-03 18   16.9   159.6W                             
1960-04-04 00   17.5   159.7W                             
1960-04-04 06   18.3   159.8W                             
1960-04-04 12   19.2   160.0W                             
1960-04-04 18   19.7   160.4W                             
1960-04-05 00   20.0   160.9W                             
1960-04-05 06   20.1   161.3W                             
1960-04-05 12   20.2   161.8W                             
1960-04-05 18   20.3   162.2W                             
1960-04-06 00   20.3   162.8W                             
1960-04-06 06   20.3   163.6W                             
1960-04-06 12   20.3   164.6W                             
1960-04-06 18   20.3   165.5W                             
1960-04-07 00   20.4   166.5W                             
1960-04-07 06   20.5   167.7W                             
1960-04-07 12   20.9   168.9W                             
1960-04-07 18   21.4   169.7W                             
1960-04-08 00   22.0   170.5W                             
1960-04-08 06   22.6   171.3W                             
1960-04-08 12   23.2   172.0W                             
1960-04-08 18   23.8   172.2W                             
1960-04-09 00   24.6   172.3W                             
1960-04-09 06   26.3   172.8W                             
1960-04-09 12   28.3   173.6W                             
1960-04-09 18   29.7   174.7W                             
1960-04-10 00   30.8   175.8W                             
1960-04-10 06   31.5   176.7W                             
1960-04-10 12   32.2   177.3W                             
1960-04-10 18   33.0   177.7W                             
1960-04-11 00   33.8   178.1W                             
1960-04-11 06   34.4   178.4W                             
1960-04-11 12   35.0   178.7W                             
1960-04-11 18   35.5   179.8                              
1960-04-12 00   36.0   178.9                              
1960-04-12 06   37.0   179.9                              
1960-04-12 12   38.0   179.0W                             
1960-04-12 18   38.7   178.1W                             
1960-04-13 00   39.3   177.2W                             
Winds are 1-min average.

Tropical cyclone tracks developed by Michael Bath using data from the Joint Typhoon Warning Centre Best Tracks and Google Maps.


[Australian Severe Weather index] [Copyright Notice] [Email Contacts] [Search This Site] [Privacy Policy]
Document: tropical_cyclone_196022.htm Updated: 18 September 2016